Philip, South Dakota
Current Conditions -  °F | °C
As of 3:55 PM on Sunday 21 Dec 2014 (Local Time) from KPHP Reporting Station
Overcast Overcast  
Wind Chill: 38°   Ceiling: 11000
Heat Index: 41°   Visibility: 10mi
Dew Point: 28°   Wind: 5mph
Humidity: 60%   Direction: 320°NW
Pressure: 29.39"   Gusts: NA
Location:  44.04°N, 101.67°W
Report Text: KPHP 212255Z AUTO 32004KT 10SM OVC110 05/M02 A2939 RMK AO2 SLP968 T00501022
Loading
Personal Weather Stations






























Interactive Weather Map New forecast layout! Learn more

10-Day Weather Forecast

Advertisements
Track Severe Weather on mobile